Time;durP1;ratioP1;P1;durP2;ratioP2;P2;SDS_P1;SDS_P2;PMS_P1;PMS_P2;Temp;Humidity;BMP_temperature;BMP_pressure;BME280_temperature;BME280_humidity;BME280_pressure;Samples;Min_cycle;Max_cycle;Signal;HPM_P1;HPM_P2
2023/01/27 00:00:38;;;;;;;9.60;2.28;;;4.80;99.90;;;;;;4903240;29;20040;-71
2023/01/27 00:03:05;;;;;;;10.27;2.63;;;4.80;99.90;;;;;;4895500;29;20062;-71
2023/01/27 00:05:31;;;;;;;12.82;2.88;;;4.80;99.90;;;;;;4892284;29;20051;-71
2023/01/27 00:07:59;;;;;;;17.65;3.47;;;4.80;99.90;;;;;;4903873;29;20040;-71
2023/01/27 00:10:26;;;;;;;12.30;3.33;;;4.80;99.90;;;;;;4897685;29;20423;-70
2023/01/27 00:15:37;;;;;;;23.75;6.80;;;4.80;99.90;;;;;;4894136;29;20368;-70
2023/01/27 00:18:04;;;;;;;15.73;3.88;;;4.80;99.90;;;;;;4912118;29;20047;-70
2023/01/27 00:26:07;;;;;;;16.25;3.72;;;4.70;99.90;;;;;;4892054;29;20035;-70
2023/01/27 00:28:38;;;;;;;19.27;4.30;;;4.70;99.90;;;;;;4898163;29;20036;-70
2023/01/27 00:31:08;;;;;;;10.70;3.30;;;4.70;99.90;;;;;;4905848;29;20040;-71
2023/01/27 00:33:34;;;;;;;12.23;2.90;;;4.70;99.90;;;;;;4895757;29;20028;-72
2023/01/27 00:36:05;;;;;;;10.85;3.85;;;4.70;99.90;;;;;;4877511;29;20052;-70
2023/01/27 00:38:39;;;;;;;14.32;3.95;;;4.70;99.90;;;;;;4910628;29;20142;-70
2023/01/27 00:41:19;;;;;;;12.38;2.72;;;4.70;99.90;;;;;;4915305;29;20036;-70
2023/01/27 00:43:51;;;;;;;17.70;4.43;;;4.70;99.90;;;;;;4898196;29;20437;-70
2023/01/27 00:46:19;;;;;;;10.05;3.15;;;4.60;99.90;;;;;;4902667;29;20942;-70
2023/01/27 00:48:46;;;;;;;14.63;3.78;;;4.60;99.90;;;;;;4898255;29;20043;-70
2023/01/27 00:51:12;;;;;;;8.60;3.50;;;4.60;99.90;;;;;;4884632;29;20393;-70
2023/01/27 00:53:39;;;;;;;10.18;2.63;;;4.60;99.90;;;;;;4883619;29;20482;-70
2023/01/27 00:56:06;;;;;;;12.98;3.45;;;4.70;99.90;;;;;;4907044;29;20055;-71
2023/01/27 00:58:33;;;;;;;15.90;5.57;;;4.60;99.90;;;;;;4883422;29;20290;-70
2023/01/27 01:01:02;;;;;;;13.20;4.30;;;4.60;99.90;;;;;;4880362;29;20036;-71
2023/01/27 01:03:30;;;;;;;10.20;3.90;;;4.60;99.90;;;;;;4907436;29;20035;-70
2023/01/27 01:06:01;;;;;;;15.00;4.93;;;4.60;99.90;;;;;;4909483;29;20399;-70
2023/01/27 01:08:30;;;;;;;17.07;7.23;;;4.60;99.90;;;;;;4896654;29;20695;-70
2023/01/27 01:10:57;;;;;;;13.35;4.38;;;4.60;99.90;;;;;;4892944;29;20036;-71
2023/01/27 01:13:26;;;;;;;19.90;5.57;;;4.60;99.90;;;;;;4891071;29;20371;-70
2023/01/27 01:15:53;;;;;;;19.60;5.70;;;4.60;99.90;;;;;;4886486;29;20040;-71
2023/01/27 01:18:20;;;;;;;12.20;4.23;;;4.50;99.90;;;;;;4906462;29;20067;-70
2023/01/27 01:20:46;;;;;;;12.32;4.90;;;4.50;99.90;;;;;;4881712;29;20039;-70
2023/01/27 01:23:14;;;;;;;17.20;5.05;;;4.50;99.90;;;;;;4914970;29;20043;-70
2023/01/27 01:25:41;;;;;;;13.13;4.40;;;4.50;99.90;;;;;;4897926;29;20090;-70
2023/01/27 01:28:08;;;;;;;10.85;5.47;;;4.50;99.90;;;;;;4916033;29;20040;-70
2023/01/27 01:30:37;;;;;;;12.75;5.32;;;4.50;99.90;;;;;;4899050;29;20884;-70
2023/01/27 01:33:05;;;;;;;14.05;5.72;;;4.50;99.90;;;;;;4908082;29;20047;-71
2023/01/27 01:35:36;;;;;;;18.98;7.43;;;4.50;99.90;;;;;;4885252;29;20220;-70
2023/01/27 01:38:02;;;;;;;12.93;6.45;;;4.50;99.90;;;;;;4913200;29;20391;-70
2023/01/27 01:40:28;;;;;;;16.60;6.55;;;4.50;99.90;;;;;;4917400;29;20349;-72
2023/01/27 01:42:58;;;;;;;16.73;6.22;;;4.50;99.90;;;;;;4892916;29;20024;-72
2023/01/27 01:45:31;;;;;;;17.88;5.80;;;4.50;99.90;;;;;;4899255;29;21029;-73
2023/01/27 01:47:59;;;;;;;14.15;6.80;;;4.40;99.90;;;;;;4891844;29;20391;-71
2023/01/27 01:50:26;;;;;;;11.65;6.28;;;4.50;99.90;;;;;;4898413;29;20039;-70
2023/01/27 01:52:53;;;;;;;20.65;7.93;;;4.50;99.90;;;;;;4897506;29;20498;-71
2023/01/27 01:55:21;;;;;;;16.45;6.20;;;4.50;99.90;;;;;;4905928;29;20051;-71
2023/01/27 01:57:48;;;;;;;9.80;5.82;;;4.50;99.90;;;;;;4893136;29;20031;-72
2023/01/27 02:00:15;;;;;;;11.65;5.65;;;4.50;99.90;;;;;;4906367;29;20043;-71
2023/01/27 02:02:42;;;;;;;16.15;6.18;;;4.50;99.90;;;;;;4914328;29;20036;-72
2023/01/27 02:05:25;;;;;;;15.73;5.97;;;4.50;99.90;;;;;;4894180;29;20078;-71
2023/01/27 02:07:59;;;;;;;16.15;6.40;;;4.50;99.90;;;;;;4875745;29;20051;-71
2023/01/27 02:10:26;;;;;;;20.33;9.07;;;4.50;99.90;;;;;;4913786;29;20040;-70
2023/01/27 02:12:52;;;;;;;17.75;7.55;;;4.50;99.90;;;;;;4896726;29;20042;-70
2023/01/27 02:15:20;;;;;;;22.30;9.40;;;4.50;99.90;;;;;;4906076;29;20063;-71
2023/01/27 02:17:47;;;;;;;20.98;8.70;;;4.50;99.90;;;;;;4917571;29;20040;-70
2023/01/27 02:20:36;;;;;;;20.00;8.73;;;4.50;99.90;;;;;;4914657;29;20051;-71
2023/01/27 02:23:02;;;;;;;16.23;8.82;;;4.50;99.90;;;;;;4895579;29;20046;-70
2023/01/27 02:25:33;;;;;;;17.08;8.63;;;4.50;99.90;;;;;;4909855;29;20047;-70
2023/01/27 02:28:05;;;;;;;21.38;9.98;;;4.50;99.90;;;;;;4896645;29;20036;-71
2023/01/27 02:30:32;;;;;;;20.60;10.32;;;4.50;99.90;;;;;;4909537;29;20032;-71
2023/01/27 02:32:58;;;;;;;19.13;10.05;;;4.50;99.90;;;;;;4910922;29;20036;-70
2023/01/27 02:35:40;;;;;;;25.98;10.93;;;4.50;99.90;;;;;;4890440;29;20067;-71
2023/01/27 02:38:09;;;;;;;23.50;13.43;;;4.50;99.90;;;;;;4901270;29;20039;-70
2023/01/27 02:40:37;;;;;;;26.30;13.27;;;4.50;99.90;;;;;;4906312;29;20047;-71
2023/01/27 02:43:04;;;;;;;23.98;11.27;;;4.50;99.90;;;;;;4900387;29;20032;-70
2023/01/27 02:45:30;;;;;;;22.45;11.77;;;4.50;99.90;;;;;;4893683;29;20039;-70
2023/01/27 02:47:57;;;;;;;24.50;14.57;;;4.50;99.90;;;;;;4898688;29;20020;-71
2023/01/27 02:50:23;;;;;;;28.38;15.10;;;4.40;99.90;;;;;;4880412;29;21005;-70
2023/01/27 02:52:49;;;;;;;24.58;14.85;;;4.40;99.90;;;;;;4917599;29;20411;-71
2023/01/27 02:55:16;;;;;;;21.40;14.60;;;4.40;99.90;;;;;;4879470;29;21100;-71
2023/01/27 02:57:42;;;;;;;30.30;16.80;;;4.40;99.90;;;;;;4910668;29;20038;-70
2023/01/27 03:00:27;;;;;;;26.20;16.42;;;4.40;99.90;;;;;;4897792;29;20032;-70
2023/01/27 03:02:54;;;;;;;27.60;15.30;;;4.40;99.90;;;;;;4912614;29;20031;-70
2023/01/27 03:05:20;;;;;;;36.38;18.80;;;4.40;99.90;;;;;;4911124;29;20044;-70
2023/01/27 03:07:47;;;;;;;34.80;18.75;;;4.40;99.90;;;;;;4907591;29;20028;-69
2023/01/27 03:10:13;;;;;;;26.70;17.65;;;4.40;99.90;;;;;;4901712;29;20071;-70
2023/01/27 03:12:40;;;;;;;27.23;19.08;;;4.30;99.90;;;;;;4886591;29;20059;-70
2023/01/27 03:18:15;;;;;;;32.20;20.85;;;4.30;99.90;;;;;;4883342;29;20084;-70
2023/01/27 03:20:46;;;;;;;28.35;19.52;;;4.30;99.90;;;;;;4917196;29;20483;-71
2023/01/27 03:23:16;;;;;;;29.50;19.33;;;4.30;99.90;;;;;;4901276;29;20051;-70
2023/01/27 03:25:47;;;;;;;29.27;18.10;;;4.30;99.90;;;;;;4891193;29;20852;-71
2023/01/27 03:28:14;;;;;;;22.05;15.75;;;4.30;99.90;;;;;;4894981;29;20036;-70
2023/01/27 03:31:05;;;;;;;26.60;18.65;;;4.30;99.90;;;;;;4901110;29;20031;-70
2023/01/27 03:33:41;;;;;;;24.27;17.20;;;4.30;99.90;;;;;;4917159;29;20058;-70
2023/01/27 03:47:27;;;;;;;21.42;14.43;;;4.30;99.90;;;;;;4891845;29;20055;-69
2023/01/27 03:49:53;;;;;;;21.73;14.57;;;4.30;99.90;;;;;;4916401;29;20447;-70
2023/01/27 03:52:19;;;;;;;18.33;14.40;;;4.30;99.90;;;;;;4916955;29;20027;-70
2023/01/27 03:54:45;;;;;;;23.37;15.23;;;4.30;99.90;;;;;;4920158;29;20024;-71
2023/01/27 03:57:13;;;;;;;19.45;13.35;;;4.30;99.90;;;;;;4890222;29;20039;-69
2023/01/27 03:59:39;;;;;;;20.50;13.98;;;4.30;99.90;;;;;;4883775;29;20040;-70
2023/01/27 04:07:35;;;;;;;17.08;10.75;;;4.40;99.90;;;;;;4911771;29;20059;-70
2023/01/27 04:10:03;;;;;;;16.23;11.90;;;4.40;99.90;;;;;;4898643;29;20044;-72
2023/01/27 04:12:29;;;;;;;17.05;10.80;;;4.40;99.90;;;;;;4898773;29;20039;-70
2023/01/27 04:14:56;;;;;;;11.95;9.65;;;4.40;99.90;;;;;;4893926;29;20047;-70
2023/01/27 04:17:23;;;;;;;13.75;10.10;;;4.40;99.90;;;;;;4871552;29;20071;-69
2023/01/27 04:19:49;;;;;;;14.90;10.98;;;4.40;99.90;;;;;;4915108;29;20051;-69
2023/01/27 04:22:15;;;;;;;13.05;9.63;;;4.40;99.90;;;;;;4896338;29;20044;-70
2023/01/27 04:24:42;;;;;;;14.35;9.63;;;4.50;99.90;;;;;;4920290;29;20047;-70
2023/01/27 04:27:11;;;;;;;12.77;10.18;;;4.50;99.90;;;;;;4908225;29;20035;-70
2023/01/27 04:29:42;;;;;;;11.73;9.50;;;4.50;99.90;;;;;;4916490;29;20039;-70
2023/01/27 04:32:10;;;;;;;12.57;10.10;;;4.50;99.90;;;;;;4920464;29;20040;-73
2023/01/27 04:34:37;;;;;;;10.97;9.23;;;4.50;99.90;;;;;;4898429;29;20482;-70
2023/01/27 04:37:05;;;;;;;13.05;9.57;;;4.50;99.90;;;;;;4891354;29;20059;-70
2023/01/27 04:39:33;;;;;;;12.15;9.50;;;4.50;99.90;;;;;;4915113;29;20482;-69
2023/01/27 04:41:59;;;;;;;15.70;10.35;;;4.50;99.90;;;;;;4915349;29;20036;-70
2023/01/27 04:44:25;;;;;;;11.50;9.05;;;4.50;99.90;;;;;;4898546;29;20040;-69
2023/01/27 04:46:53;;;;;;;11.80;8.77;;;4.50;99.90;;;;;;4900097;29;20046;-69
2023/01/27 04:49:19;;;;;;;12.73;9.05;;;4.50;99.90;;;;;;4879660;29;20043;-70
2023/01/27 04:51:46;;;;;;;12.20;9.25;;;4.50;99.90;;;;;;4899332;29;20030;-71
2023/01/27 04:54:12;;;;;;;8.48;6.90;;;4.50;99.90;;;;;;4916446;29;20106;-70
2023/01/27 04:56:43;;;;;;;11.35;9.05;;;4.50;99.90;;;;;;4889697;29;20032;-69
2023/01/27 04:59:11;;;;;;;11.50;7.82;;;4.50;99.90;;;;;;4899909;29;20039;-70
2023/01/27 05:01:37;;;;;;;8.45;7.38;;;4.50;99.90;;;;;;4884775;29;20044;-69
2023/01/27 05:04:04;;;;;;;9.73;7.35;;;4.50;99.90;;;;;;4876680;29;20509;-69
2023/01/27 05:06:30;;;;;;;10.55;7.63;;;4.50;99.90;;;;;;4899434;29;20114;-73
2023/01/27 05:08:57;;;;;;;10.27;7.50;;;4.60;99.90;;;;;;4914168;29;20063;-70
2023/01/27 05:11:23;;;;;;;8.70;6.97;;;4.60;99.90;;;;;;4899699;29;20036;-70
2023/01/27 05:13:49;;;;;;;9.90;8.35;;;4.60;99.90;;;;;;4913995;29;20035;-70
2023/01/27 05:16:20;;;;;;;7.63;6.28;;;4.60;99.90;;;;;;4868640;29;20070;-70
2023/01/27 05:18:48;;;;;;;6.93;5.88;;;4.60;99.90;;;;;;4884050;29;20383;-69
2023/01/27 05:21:17;;;;;;;6.78;5.18;;;4.60;99.90;;;;;;4889373;29;20043;-70
2023/01/27 05:23:44;;;;;;;8.88;6.00;;;4.60;99.90;;;;;;4900679;29;20046;-70
2023/01/27 05:26:16;;;;;;;6.07;5.32;;;4.60;99.90;;;;;;4890391;29;20032;-70
2023/01/27 05:28:44;;;;;;;8.35;6.30;;;4.60;99.90;;;;;;4917568;29;20044;-70
2023/01/27 05:31:20;;;;;;;8.20;5.53;;;4.60;99.90;;;;;;4918585;29;20035;-69
2023/01/27 05:33:48;;;;;;;9.55;6.28;;;4.70;99.90;;;;;;4899640;29;20044;-69
2023/01/27 05:36:17;;;;;;;7.35;5.38;;;4.70;99.90;;;;;;4909697;29;20488;-70
2023/01/27 05:38:44;;;;;;;7.82;5.95;;;4.70;99.90;;;;;;4915164;29;20036;-70
2023/01/27 05:41:12;;;;;;;8.57;5.85;;;4.70;99.90;;;;;;4897167;29;20040;-70
2023/01/27 05:43:40;;;;;;;8.93;5.40;;;4.70;99.90;;;;;;4915458;29;20039;-70
2023/01/27 05:46:08;;;;;;;5.22;4.32;;;4.70;99.90;;;;;;4905715;29;20039;-70
2023/01/27 05:48:36;;;;;;;7.90;6.18;;;4.70;99.90;;;;;;4914525;29;20044;-71
2023/01/27 05:51:03;;;;;;;8.00;5.72;;;4.70;99.90;;;;;;4911154;29;20032;-70
2023/01/27 05:53:30;;;;;;;6.53;5.15;;;4.70;99.90;;;;;;4904719;29;20044;-71
2023/01/27 05:55:57;;;;;;;8.68;6.50;;;4.70;99.90;;;;;;4893354;29;20040;-71
2023/01/27 05:58:23;;;;;;;7.53;5.63;;;4.70;99.90;;;;;;4916498;29;20044;-69
2023/01/27 06:00:50;;;;;;;7.00;5.43;;;4.70;99.90;;;;;;4922685;29;20036;-71
2023/01/27 06:03:17;;;;;;;8.45;6.53;;;4.70;99.90;;;;;;4919708;29;20032;-70
2023/01/27 06:05:54;;;;;;;9.57;6.15;;;4.70;99.90;;;;;;4903395;29;20114;-70
2023/01/27 06:08:22;;;;;;;9.15;6.28;;;4.60;99.90;;;;;;4905497;29;20038;-70
2023/01/27 06:10:50;;;;;;;8.07;5.53;;;4.60;99.90;;;;;;4885208;29;20421;-71
2023/01/27 06:13:19;;;;;;;6.28;5.35;;;4.50;99.90;;;;;;4899264;29;20028;-69
2023/01/27 06:15:46;;;;;;;8.90;5.63;;;4.60;99.90;;;;;;4909642;29;20420;-71
2023/01/27 06:18:14;;;;;;;5.85;4.82;;;4.60;99.90;;;;;;4914933;29;20498;-70
2023/01/27 06:20:41;;;;;;;7.18;5.20;;;4.60;99.90;;;;;;4899589;29;20043;-71
2023/01/27 06:23:09;;;;;;;4.88;4.30;;;4.60;99.90;;;;;;4922112;29;20035;-70
2023/01/27 06:25:41;;;;;;;7.72;5.28;;;4.60;99.90;;;;;;4902073;29;20040;-71
2023/01/27 06:28:08;;;;;;;;;;;4.60;99.90;;;;;;4883039;29;20040;-70
2023/01/27 06:30:36;;;;;;;7.25;4.57;;;4.50;99.90;;;;;;4905822;29;19919;-70
2023/01/27 06:33:03;;;;;;;8.15;4.93;;;4.50;99.90;;;;;;4884043;29;20051;-70
2023/01/27 06:35:30;;;;;;;7.80;5.57;;;4.40;99.90;;;;;;4877091;29;20056;-71
2023/01/27 06:37:58;;;;;;;6.30;5.57;;;4.40;99.90;;;;;;4898591;29;20043;-71
2023/01/27 06:40:26;;;;;;;5.97;4.05;;;4.30;99.90;;;;;;4884935;29;20039;-70
2023/01/27 06:42:52;;;;;;;7.18;5.10;;;4.40;99.90;;;;;;4884062;29;20044;-71
2023/01/27 06:45:18;;;;;;;8.55;5.13;;;4.30;99.90;;;;;;4914082;29;20048;-71
2023/01/27 06:47:44;;;;;;;4.65;3.67;;;4.40;99.90;;;;;;4897038;29;20379;-69
2023/01/27 06:50:11;;;;;;;4.93;3.70;;;4.40;99.90;;;;;;4902694;29;20024;-70
2023/01/27 06:52:38;;;;;;;6.55;4.40;;;4.40;99.90;;;;;;4902633;29;20042;-71
2023/01/27 06:55:04;;;;;;;5.05;3.22;;;4.40;99.90;;;;;;4908212;29;20048;-70
2023/01/27 06:57:31;;;;;;;3.97;3.35;;;4.40;99.90;;;;;;4910626;29;20249;-70
2023/01/27 06:59:57;;;;;;;4.32;2.78;;;4.40;99.90;;;;;;4881445;29;20043;-70
2023/01/27 07:02:23;;;;;;;4.85;3.28;;;4.40;99.90;;;;;;4918675;29;20040;-70
2023/01/27 07:04:49;;;;;;;6.82;3.63;;;4.40;99.90;;;;;;4908988;29;20048;-70
2023/01/27 07:07:16;;;;;;;6.20;3.65;;;4.30;99.90;;;;;;4892914;29;20035;-71
2023/01/27 07:09:42;;;;;;;4.95;3.83;;;4.10;99.90;;;;;;4898290;29;20376;-70
2023/01/27 07:12:08;;;;;;;5.73;3.63;;;4.00;99.90;;;;;;4897278;29;20404;-70
2023/01/27 07:14:34;;;;;;;3.95;3.05;;;3.90;99.90;;;;;;4920336;29;20269;-70
2023/01/27 07:17:01;;;;;;;7.03;4.28;;;3.80;99.90;;;;;;4873338;29;20507;-71
2023/01/27 07:19:27;;;;;;;5.75;4.70;;;3.70;99.90;;;;;;4893595;29;20032;-70
2023/01/27 07:21:53;;;;;;;4.77;4.20;;;3.60;99.90;;;;;;4921723;29;20032;-70
2023/01/27 07:24:19;;;;;;;6.22;5.00;;;3.60;99.90;;;;;;4916128;29;20031;-70
2023/01/27 07:26:46;;;;;;;6.60;4.47;;;3.50;99.90;;;;;;4905820;29;20495;-70
2023/01/27 07:29:13;;;;;;;8.13;4.53;;;3.50;99.90;;;;;;4901549;29;20035;-70
2023/01/27 07:31:39;;;;;;;4.30;3.40;;;3.40;99.90;;;;;;4914972;29;20031;-70
2023/01/27 07:34:06;;;;;;;6.43;3.85;;;3.40;99.90;;;;;;4918603;29;20020;-71
2023/01/27 07:36:32;;;;;;;6.00;3.53;;;3.40;99.90;;;;;;4906759;29;20063;-71
2023/01/27 07:38:58;;;;;;;6.13;4.73;;;3.30;99.90;;;;;;4916851;29;20467;-69
2023/01/27 07:41:25;;;;;;;5.50;4.32;;;3.40;99.90;;;;;;4917401;29;20114;-70
2023/01/27 07:43:51;;;;;;;4.93;3.15;;;3.50;99.90;;;;;;4908075;29;20024;-70
2023/01/27 07:46:17;;;;;;;4.13;2.75;;;3.50;99.90;;;;;;4890445;29;20051;-70
2023/01/27 07:48:44;;;;;;;4.22;3.60;;;3.60;99.90;;;;;;4915323;29;20035;-70
2023/01/27 07:51:14;;;;;;;5.55;4.90;;;3.60;99.90;;;;;;4915090;29;20032;-70
2023/01/27 07:53:41;;;;;;;6.55;4.47;;;3.70;99.90;;;;;;4901309;29;20028;-71
2023/01/27 07:56:10;;;;;;;11.40;7.23;;;3.70;99.90;;;;;;4888125;29;20040;-71
2023/01/27 07:58:41;;;;;;;6.72;5.18;;;3.80;99.90;;;;;;4887205;29;20472;-71
2023/01/27 08:01:08;;;;;;;8.43;5.90;;;3.80;99.90;;;;;;4900108;29;20027;-70
2023/01/27 08:03:35;;;;;;;4.68;4.00;;;3.80;99.90;;;;;;4910574;29;20047;-71
2023/01/27 08:06:06;;;;;;;3.90;3.53;;;3.90;99.90;;;;;;4900854;29;20024;-71
2023/01/27 08:08:32;;;;;;;5.05;3.47;;;3.90;99.90;;;;;;4880614;29;20032;-70
2023/01/27 08:11:04;;;;;;;7.13;3.92;;;4.00;99.90;;;;;;4895688;29;20259;-71
2023/01/27 08:13:30;;;;;;;7.90;4.53;;;4.00;99.90;;;;;;4898074;29;20039;-70
2023/01/27 08:15:58;;;;;;;5.47;3.87;;;4.00;99.90;;;;;;4898875;29;20369;-71
2023/01/27 08:18:25;;;;;;;5.63;3.65;;;4.10;99.90;;;;;;4911200;29;20036;-71
2023/01/27 08:20:53;;;;;;;6.03;3.63;;;4.10;99.90;;;;;;4901878;29;20047;-70
2023/01/27 08:23:21;;;;;;;4.97;2.90;;;4.20;99.90;;;;;;4899072;29;20074;-70
2023/01/27 08:25:51;;;;;;;6.05;3.47;;;4.20;99.90;;;;;;4889292;29;20044;-70
2023/01/27 08:28:18;;;;;;;4.10;3.20;;;4.20;99.90;;;;;;4915774;29;20027;-70
2023/01/27 08:30:45;;;;;;;5.07;2.93;;;4.30;99.90;;;;;;4881126;29;20032;-70
2023/01/27 08:33:12;;;;;;;5.18;3.20;;;4.30;99.90;;;;;;4913257;29;20032;-70
2023/01/27 08:35:43;;;;;;;5.30;2.80;;;4.30;99.90;;;;;;4889958;29;20044;-69
2023/01/27 08:38:11;;;;;;;3.90;3.00;;;4.30;99.90;;;;;;4898634;29;20066;-70
2023/01/27 08:40:39;;;;;;;3.60;2.80;;;4.40;99.90;;;;;;4916288;29;20401;-69
2023/01/27 08:43:06;;;;;;;4.40;2.63;;;4.30;99.90;;;;;;4915935;29;20036;-69
2023/01/27 08:45:33;;;;;;;3.33;2.47;;;4.30;99.90;;;;;;4893964;29;20038;-69
2023/01/27 08:47:59;;;;;;;3.45;2.58;;;4.40;99.90;;;;;;4915414;29;20158;-70
2023/01/27 08:50:26;;;;;;;3.95;2.42;;;4.40;99.90;;;;;;4898918;29;20455;-69
2023/01/27 08:52:52;;;;;;;5.65;2.60;;;4.40;99.90;;;;;;4884787;29;20036;-70
2023/01/27 08:55:19;;;;;;;4.32;2.95;;;4.40;99.90;;;;;;4888413;29;20055;-69
2023/01/27 08:57:45;;;;;;;4.32;2.60;;;4.40;99.90;;;;;;4912274;29;20036;-69
2023/01/27 09:00:12;;;;;;;3.35;2.97;;;4.40;99.90;;;;;;4878131;29;20537;-69
2023/01/27 09:02:38;;;;;;;4.50;2.80;;;4.40;99.90;;;;;;4896722;29;20698;-69
2023/01/27 09:05:05;;;;;;;3.63;2.78;;;4.40;99.90;;;;;;4913077;29;20040;-69
2023/01/27 09:07:33;;;;;;;5.18;2.95;;;4.50;99.90;;;;;;4892731;29;20039;-71
2023/01/27 09:09:59;;;;;;;5.22;3.30;;;4.50;99.90;;;;;;4883037;29;20043;-69
2023/01/27 09:12:25;;;;;;;7.40;2.47;;;4.50;99.90;;;;;;4901595;29;20043;-69
2023/01/27 09:14:51;;;;;;;3.83;3.28;;;4.50;99.90;;;;;;4897838;29;20040;-69
2023/01/27 09:17:18;;;;;;;7.00;3.15;;;4.40;99.90;;;;;;4902126;29;20059;-69
2023/01/27 09:19:45;;;;;;;3.72;2.72;;;4.40;99.90;;;;;;4900973;29;20036;-67
2023/01/27 09:22:12;;;;;;;2.90;2.58;;;4.40;99.90;;;;;;4915727;29;20032;-70
2023/01/27 09:24:38;;;;;;;5.30;3.53;;;4.40;99.90;;;;;;4892866;29;20023;-69
2023/01/27 09:27:04;;;;;;;4.25;3.10;;;4.40;99.90;;;;;;4889217;29;20047;-69
2023/01/27 09:29:31;;;;;;;4.18;3.45;;;4.40;99.90;;;;;;4915841;29;20031;-69
2023/01/27 09:31:57;;;;;;;3.75;2.80;;;4.40;99.90;;;;;;4898182;29;20044;-68
2023/01/27 09:34:23;;;;;;;4.30;3.20;;;4.50;99.90;;;;;;4897511;29;20039;-69
2023/01/27 09:36:58;;;;;;;3.10;2.80;;;4.50;99.90;;;;;;4899763;29;20071;-69
2023/01/27 09:39:26;;;;;;;4.25;3.22;;;4.50;99.90;;;;;;4913139;29;20542;-72
2023/01/27 09:42:28;;;;;;;5.97;4.30;;;4.50;99.90;;;;;;4898839;29;20042;-70
2023/01/27 09:45:15;;;;;;;4.57;4.15;;;4.50;99.90;;;;;;4906134;29;20043;-69
2023/01/27 09:47:50;;;;;;;4.68;3.50;;;4.50;99.90;;;;;;4888109;29;20036;-70
2023/01/27 09:50:19;;;;;;;4.25;3.72;;;4.50;99.90;;;;;;4897176;29;20040;-69
2023/01/27 09:52:48;;;;;;;4.68;3.10;;;4.50;99.90;;;;;;4884657;29;20365;-69
2023/01/27 09:55:25;;;;;;;5.75;3.67;;;4.60;99.90;;;;;;4909888;29;20036;-69
2023/01/27 09:58:18;;;;;;;5.20;4.05;;;4.60;99.90;;;;;;4891536;29;20047;-69
2023/01/27 10:01:12;;;;;;;4.15;3.20;;;4.60;99.90;;;;;;4907089;29;20044;-69
2023/01/27 10:04:17;;;;;;;6.15;4.60;;;4.70;99.90;;;;;;4916830;29;20028;-69
2023/01/27 10:07:05;;;;;;;4.50;3.17;;;4.60;99.90;;;;;;4893649;29;20035;-69
2023/01/27 10:09:34;;;;;;;4.88;3.90;;;4.70;99.90;;;;;;4907389;29;20027;-69
2023/01/27 10:12:16;;;;;;;5.10;4.47;;;4.70;99.90;;;;;;4914071;29;20419;-69
2023/01/27 10:15:01;;;;;;;4.93;4.10;;;4.70;99.90;;;;;;4907459;29;20023;-70
2023/01/27 10:17:27;;;;;;;5.50;5.00;;;4.70;99.90;;;;;;4891888;29;20391;-69
2023/01/27 10:20:09;;;;;;;4.20;3.72;;;4.70;99.90;;;;;;4898438;29;20395;-70
2023/01/27 10:22:59;;;;;;;5.72;4.13;;;4.70;99.90;;;;;;4896214;29;20511;-70
2023/01/27 10:25:39;;;;;;;4.40;3.78;;;4.70;99.90;;;;;;4887733;29;21163;-71
2023/01/27 10:28:28;;;;;;;3.58;3.20;;;4.80;99.90;;;;;;4913471;29;20487;-69
2023/01/27 10:31:07;;;;;;;5.15;3.45;;;4.80;99.90;;;;;;4881021;29;20035;-70
2023/01/27 10:33:48;;;;;;;4.85;4.35;;;4.90;99.90;;;;;;4911521;29;20055;-69
2023/01/27 10:36:40;;;;;;;5.78;4.57;;;4.90;99.90;;;;;;4887353;29;20052;-69
2023/01/27 10:39:28;;;;;;;6.00;4.10;;;5.00;99.90;;;;;;4888689;29;20047;-70
2023/01/27 10:42:13;;;;;;;5.18;4.13;;;4.90;99.90;;;;;;4916261;29;20048;-70
2023/01/27 10:44:59;;;;;;;5.55;4.10;;;5.00;99.90;;;;;;4898617;29;20056;-71
2023/01/27 10:47:44;;;;;;;6.32;4.10;;;5.00;99.90;;;;;;4905302;29;20122;-69
2023/01/27 10:50:17;;;;;;;6.22;4.53;;;5.00;99.90;;;;;;4880774;29;20044;-70
2023/01/27 10:53:32;;;;;;;6.90;5.35;;;5.00;99.90;;;;;;4897908;29;20036;-70
2023/01/27 10:56:10;;;;;;;4.88;4.30;;;5.00;99.90;;;;;;4877324;29;20062;-70
2023/01/27 10:59:08;;;;;;;5.38;3.70;;;5.00;99.90;;;;;;4880351;29;20558;-69
2023/01/27 11:01:43;;;;;;;8.82;6.55;;;5.00;99.90;;;;;;4886310;29;20051;-71
2023/01/27 11:04:34;;;;;;;5.63;4.22;;;5.00;99.90;;;;;;4913538;29;20028;-69
2023/01/27 11:07:03;;;;;;;4.85;3.88;;;5.10;99.90;;;;;;4904862;29;20046;-70
2023/01/27 11:09:46;;;;;;;4.47;3.92;;;5.20;99.90;;;;;;4897779;29;20048;-70
2023/01/27 11:12:13;;;;;;;;;;;5.30;99.90;;;;;;4878705;29;20047;-70
2023/01/27 11:14:50;;;;;;;4.50;3.78;;;5.40;99.90;;;;;;4895811;29;20263;-70
2023/01/27 11:17:29;;;;;;;3.83;3.43;;;5.50;99.90;;;;;;4898429;29;20040;-70
2023/01/27 11:20:01;;;;;;;3.85;3.53;;;5.60;99.90;;;;;;4912032;29;20407;-70
2023/01/27 11:22:35;;;;;;;3.63;3.22;;;5.80;99.90;;;;;;4916285;29;20032;-70
2023/01/27 11:25:23;;;;;;;5.82;3.35;;;5.90;99.90;;;;;;4893290;29;20629;-70
2023/01/27 11:28:04;;;;;;;4.68;3.35;;;6.00;99.90;;;;;;4914317;29;20044;-70
2023/01/27 11:30:41;;;;;;;4.57;3.65;;;6.00;99.90;;;;;;4915262;29;20036;-70
2023/01/27 11:33:43;;;;;;;3.17;2.75;;;5.90;99.90;;;;;;4893616;29;20063;-71
2023/01/27 11:36:09;;;;;;;4.95;3.67;;;5.90;99.90;;;;;;4869296;29;20063;-69
2023/01/27 11:38:36;;;;;;;14.20;8.07;;;5.90;99.90;;;;;;4896967;29;20044;-70
2023/01/27 11:41:02;;;;;;;4.15;3.17;;;5.90;99.90;;;;;;4874407;29;20504;-70
2023/01/27 11:43:28;;;;;;;7.82;5.35;;;5.80;99.90;;;;;;4882105;29;20047;-72
2023/01/27 11:46:01;;;;;;;5.63;4.32;;;5.80;99.90;;;;;;4904129;29;20874;-69
2023/01/27 11:48:39;;;;;;;3.67;3.30;;;5.90;99.90;;;;;;4876156;29;20036;-70
2023/01/27 11:51:30;;;;;;;3.83;2.97;;;5.90;99.90;;;;;;4902577;29;20696;-70
2023/01/27 11:54:14;;;;;;;5.28;3.58;;;5.90;99.90;;;;;;4911514;29;20043;-69
2023/01/27 11:56:45;;;;;;;3.63;2.72;;;6.00;99.90;;;;;;4901665;29;20045;-70
2023/01/27 11:59:29;;;;;;;4.95;3.03;;;6.00;99.90;;;;;;4891801;29;20043;-69
2023/01/27 12:02:01;;;;;;;3.15;2.42;;;6.10;99.90;;;;;;4893160;29;20052;-69
2023/01/27 12:04:44;;;;;;;5.22;3.42;;;6.10;99.90;;;;;;4891889;29;20040;-71
2023/01/27 12:07:22;;;;;;;;;;;6.20;99.90;;;;;;4888292;29;20087;-70
2023/01/27 12:09:48;;;;;;;3.42;3.13;;;6.10;99.90;;;;;;4911493;29;20457;-71
2023/01/27 12:12:14;;;;;;;3.05;2.63;;;6.10;99.90;;;;;;4901442;29;20484;-71
2023/01/27 12:14:57;;;;;;;3.40;2.53;;;6.10;99.90;;;;;;4909591;29;20042;-70
2023/01/27 12:17:52;;;;;;;4.40;3.35;;;6.10;99.90;;;;;;4901946;29;20031;-70
2023/01/27 12:20:18;;;;;;;3.45;2.90;;;6.10;99.90;;;;;;4858075;29;20058;-69
2023/01/27 12:22:48;;;;;;;4.32;3.15;;;6.20;99.90;;;;;;4911643;29;20056;-70
2023/01/27 12:25:21;;;;;;;5.40;3.60;;;6.20;99.90;;;;;;4905782;29;20044;-71
2023/01/27 12:27:52;;;;;;;3.80;3.10;;;6.30;99.90;;;;;;4908546;29;20401;-71
2023/01/27 12:30:25;;;;;;;3.92;2.92;;;6.30;99.90;;;;;;4880051;29;20051;-70
2023/01/27 12:32:52;;;;;;;4.38;3.95;;;6.30;99.90;;;;;;4912517;29;20044;-72
2023/01/27 12:35:23;;;;;;;5.25;3.50;;;6.40;99.90;;;;;;4898081;29;20070;-72
2023/01/27 12:38:10;;;;;;;3.85;3.35;;;6.40;99.90;;;;;;4914419;29;20044;-71
2023/01/27 12:40:41;;;;;;;5.20;3.65;;;6.30;99.90;;;;;;4904534;29;20043;-70
2023/01/27 12:43:18;;;;;;;4.43;4.03;;;6.30;99.90;;;;;;4889203;29;20063;-70
2023/01/27 12:46:07;;;;;;;4.07;3.47;;;6.20;99.90;;;;;;4905229;29;20050;-70
2023/01/27 12:49:06;;;;;;;5.45;3.28;;;6.20;99.90;;;;;;4895404;29;20523;-70
2023/01/27 12:51:44;;;;;;;5.05;3.40;;;6.20;99.90;;;;;;4898116;29;20051;-71
2023/01/27 12:54:31;;;;;;;4.22;3.75;;;6.10;99.90;;;;;;4909806;29;20044;-70
2023/01/27 12:57:17;;;;;;;3.25;2.90;;;6.00;99.90;;;;;;4885363;29;20047;-71
2023/01/27 12:59:54;;;;;;;7.07;5.22;;;6.00;99.90;;;;;;4892616;29;20052;-71
2023/01/27 13:02:24;;;;;;;6.65;4.43;;;5.90;99.90;;;;;;4905792;29;20050;-72
2023/01/27 13:04:56;;;;;;;14.52;12.20;;;5.90;99.90;;;;;;4908670;29;20106;-72
2023/01/27 13:07:36;;;;;;;5.28;4.60;;;5.90;99.90;;;;;;4886690;29;20032;-70
2023/01/27 13:10:05;;;;;;;4.72;4.22;;;5.90;99.90;;;;;;4909156;29;20567;-72
2023/01/27 13:12:49;;;;;;;5.05;4.07;;;5.80;99.90;;;;;;4892766;29;20063;-70
2023/01/27 13:15:18;;;;;;;4.65;3.45;;;5.90;99.90;;;;;;4906450;29;20083;-70
2023/01/27 13:17:50;;;;;;;3.88;3.47;;;5.80;99.90;;;;;;4910571;29;20040;-71
2023/01/27 13:20:38;;;;;;;3.92;3.45;;;5.80;99.90;;;;;;4909993;29;20500;-71
2023/01/27 13:23:17;;;;;;;3.65;3.05;;;5.80;99.90;;;;;;4894010;29;20040;-69
2023/01/27 13:26:06;;;;;;;8.18;4.18;;;5.80;99.90;;;;;;4903389;29;20044;-71
2023/01/27 13:28:45;;;;;;;4.75;3.72;;;5.80;99.90;;;;;;4874057;29;20059;-71
2023/01/27 13:31:24;;;;;;;5.50;4.22;;;5.70;99.90;;;;;;4885344;29;20047;-72
2023/01/27 13:33:57;;;;;;;6.03;3.75;;;5.70;99.90;;;;;;4911295;29;20633;-73
2023/01/27 13:36:31;;;;;;;5.32;4.82;;;5.70;99.90;;;;;;4885642;29;20519;-70
2023/01/27 13:39:13;;;;;;;4.35;3.10;;;5.70;99.90;;;;;;4907599;29;20048;-70
2023/01/27 13:41:52;;;;;;;5.28;4.13;;;5.60;99.90;;;;;;4903254;29;20052;-70